Huvudsida
METAR-TAF:

METAR-TAF

Flygplatser :

Gioia del Colle, Italien

latitud: 40-46N, longitud: 016-56E, höjd: 345 m

Aktuellt väderrapport

Denna rapport gjordes för 40 minuter sedan, klockan 17:55 UTC
Vind 7 kt från nordväst
Temperatur 8°C
Fuktighet 39%
Tryck 1016 hPa
Sikt 10 km eller mer
Inga moln under 1 500 m eller inga cumulonimbus

METAR: LIBV 281755Z 32007KT CAVOK 08/M05 Q1016 RMK SKC VIS MIN 9999 WIND THR32 33010KT WIND THR14 32007KT BLU

Tid: 19:35 (18:35 UTC)

Väderprognos

Denna rapport gjordes för 1 timme och 35 minuter sedan, klockan 17:00 UTC
Prognos gäller från 28 kl. 18 UTC till 29 kl. 03 UTC
Vind 15 kt från nord/nordväst
Sikt 10 km eller mer
Spridda moln på en höjd av 3000 ft

TAF: LIBV 281700Z 2818/2903 34015KT 9999 SCT030

Aktuella väderrapporter och prognoser från 4000 flygplatser (METAR- och TAF-rapporter).

De tillgängliga stationerna syns som gula och röda prickar på kartan.

För musen över prickarna för att se namnen på stationerna.

Klicka sedan för att få väderrapporter och prognoser.

För att ändra kartan: Klicka på de gröna knapparna med ett svart kors på för att zooma in; den gröna knappen med ett streck på för att zooma ut; eller på de gröna pilarna för angränsande kartor.


METAR-TAF: